createdAt,value
2018-06-25T00:00:36.661Z,80.30
2018-06-25T00:03:06.214Z,80.30
2018-06-25T00:05:35.384Z,80.40
2018-06-25T00:08:05.065Z,80.40
2018-06-25T00:10:34.186Z,80.00
2018-06-25T00:13:03.397Z,80.20
2018-06-25T00:15:32.812Z,80.50
2018-06-25T00:18:01.919Z,81.20
2018-06-25T00:20:31.113Z,81.50
2018-06-25T00:23:00.220Z,81.60
2018-06-25T00:25:29.593Z,81.50
2018-06-25T00:27:58.736Z,81.80
2018-06-25T00:30:28.153Z,83.00
2018-06-25T00:32:57.233Z,84.20
2018-06-25T00:35:26.404Z,84.30
2018-06-25T00:37:55.857Z,83.90
2018-06-25T00:40:25.006Z,84.10
2018-06-25T00:42:54.141Z,83.80
2018-06-25T00:45:23.249Z,83.60
2018-06-25T00:47:52.394Z,83.60
2018-06-25T00:50:21.608Z,83.90
2018-06-25T00:52:50.712Z,85.30
2018-06-25T00:55:19.852Z,85.40
2018-06-25T00:57:49.352Z,85.40
2018-06-25T01:00:18.749Z,85.50
2018-06-25T01:02:47.956Z,86.20
2018-06-25T01:05:17.093Z,87.20
2018-06-25T01:07:46.436Z,87.20
2018-06-25T01:10:15.585Z,87.20
2018-06-25T01:12:44.762Z,86.90
2018-06-25T01:15:14.327Z,86.60
2018-06-25T01:17:43.452Z,86.90
2018-06-25T01:20:12.638Z,87.80
2018-06-25T01:22:42.021Z,88.30
2018-06-25T01:25:11.150Z,88.70
2018-06-25T01:27:40.656Z,88.60
2018-06-25T01:30:09.832Z,87.80
2018-06-25T01:32:39.012Z,88.00
2018-06-25T01:35:08.205Z,88.20
2018-06-25T01:37:37.844Z,88.60
2018-06-25T01:40:07.112Z,88.70
2018-06-25T01:42:36.317Z,89.70
2018-06-25T01:45:06.269Z,89.60
2018-06-25T01:47:35.415Z,89.60
2018-06-25T01:50:04.611Z,89.30
2018-06-25T01:52:33.744Z,89.70
2018-06-25T01:55:02.909Z,90.20
2018-06-25T01:57:32.041Z,90.10
2018-06-25T02:00:01.216Z,90.00
2018-06-25T02:02:30.366Z,90.00
2018-06-25T02:04:59.556Z,89.90
2018-06-25T02:07:28.745Z,90.00
2018-06-25T02:09:58.057Z,90.20
2018-06-25T02:12:27.112Z,90.00
2018-06-25T02:14:56.532Z,90.10
2018-06-25T02:17:25.696Z,90.20
2018-06-25T02:19:55.013Z,90.10
2018-06-25T02:22:24.232Z,90.00
2018-06-25T02:24:53.379Z,90.00
2018-06-25T02:27:22.533Z,90.40
2018-06-25T02:29:51.717Z,90.50
2018-06-25T02:32:20.880Z,90.60
2018-06-25T02:34:50.948Z,90.80
2018-06-25T02:37:20.505Z,90.70
2018-06-25T02:39:49.789Z,90.50
2018-06-25T02:42:18.909Z,90.40
2018-06-25T02:44:48.145Z,90.20
2018-06-25T02:47:17.445Z,90.40
2018-06-25T02:49:46.653Z,90.50
2018-06-25T02:52:16.217Z,90.80
2018-06-25T02:54:45.336Z,90.70
2018-06-25T02:57:14.549Z,90.60
2018-06-25T03:01:13.234Z,90.70
2018-06-25T03:03:42.405Z,90.60
2018-06-25T03:06:11.629Z,90.70
2018-06-25T03:08:41.108Z,90.70
2018-06-25T03:11:10.317Z,91.00
2018-06-25T03:13:39.488Z,91.40
2018-06-25T03:16:08.742Z,91.50
2018-06-25T03:18:37.900Z,91.90
2018-06-25T03:21:07.125Z,91.90
2018-06-25T03:23:36.669Z,92.00
2018-06-25T03:26:05.817Z,92.40
2018-06-25T03:28:34.988Z,92.50
2018-06-25T03:31:04.544Z,92.70
2018-06-25T03:33:33.632Z,92.90
2018-06-25T03:36:02.909Z,93.00
2018-06-25T03:38:32.349Z,93.00
2018-06-25T03:41:01.485Z,93.00
2018-06-25T03:43:31.408Z,93.50
2018-06-25T03:46:00.557Z,93.20
2018-06-25T03:48:29.725Z,93.20
2018-06-25T03:50:59.044Z,93.20
2018-06-25T03:53:28.335Z,93.30
2018-06-25T03:55:57.525Z,93.40
2018-06-25T03:58:26.636Z,93.40
2018-06-25T04:00:55.753Z,93.30
2018-06-25T04:03:24.828Z,93.40
2018-06-25T04:05:54.369Z,93.50
2018-06-25T04:08:23.752Z,93.70
2018-06-25T04:10:52.958Z,93.60
2018-06-25T04:13:22.120Z,93.70
2018-06-25T04:15:51.261Z,93.80
2018-06-25T04:18:20.430Z,93.80
2018-06-25T04:20:49.737Z,94.10
2018-06-25T04:23:18.894Z,94.00
2018-06-25T04:25:47.938Z,94.10
2018-06-25T04:28:17.528Z,94.00
2018-06-25T04:30:46.683Z,93.90
2018-06-25T04:33:16.054Z,94.10
2018-06-25T04:35:45.180Z,93.90
2018-06-25T04:38:14.342Z,93.80
2018-06-25T04:40:43.429Z,93.50
2018-06-25T04:43:12.803Z,93.00
2018-06-25T04:45:42.037Z,93.00
2018-06-25T04:48:11.116Z,92.30
2018-06-25T04:50:40.240Z,91.90
2018-06-25T04:53:09.366Z,91.20
2018-06-25T04:55:38.529Z,90.60
2018-06-25T04:58:08.184Z,89.80
2018-06-25T05:00:37.366Z,89.00
2018-06-25T05:03:06.824Z,88.60
2018-06-25T05:05:36.017Z,89.70
2018-06-25T05:08:05.344Z,89.80
2018-06-25T05:10:34.682Z,90.00
2018-06-25T05:13:03.901Z,88.30
2018-06-25T05:15:33.037Z,87.50
2018-06-25T05:18:02.174Z,88.80
2018-06-25T05:20:31.604Z,90.20
2018-06-25T05:23:00.820Z,90.40
2018-06-25T05:25:29.993Z,90.70
2018-06-25T05:27:59.139Z,90.60
2018-06-25T05:30:28.316Z,90.60
2018-06-25T05:32:57.505Z,90.40
2018-06-25T05:35:27.215Z,90.50
2018-06-25T05:37:56.344Z,90.20
2018-06-25T05:40:25.467Z,89.50
2018-06-25T05:42:54.845Z,89.30
2018-06-25T05:45:24.105Z,89.10
2018-06-25T05:47:54.301Z,89.00
2018-06-25T05:50:23.408Z,88.60
2018-06-25T05:52:52.812Z,89.40
2018-06-25T05:55:22.241Z,88.70
2018-06-25T05:57:51.391Z,88.60
2018-06-25T06:00:20.629Z,88.30
2018-06-25T06:02:50.395Z,88.30
2018-06-25T06:05:20.060Z,87.90
2018-06-25T06:07:49.256Z,87.80
2018-06-25T06:10:18.462Z,88.40
2018-06-25T06:12:47.669Z,88.80
2018-06-25T06:15:16.757Z,88.70
2018-06-25T06:17:46.059Z,88.90
2018-06-25T06:20:15.482Z,89.70
2018-06-25T06:22:45.340Z,88.50
2018-06-25T06:25:14.481Z,87.60
2018-06-25T06:27:43.609Z,85.90
2018-06-25T06:30:13.749Z,84.50
2018-06-25T06:32:43.616Z,85.80
2018-06-25T06:35:12.792Z,87.50
2018-06-25T06:37:41.949Z,88.90
2018-06-25T06:40:11.172Z,89.50
2018-06-25T06:42:40.645Z,88.60
2018-06-25T06:45:09.888Z,88.60
2018-06-25T06:47:39.036Z,88.00
2018-06-25T06:50:08.177Z,87.10
2018-06-25T06:52:37.345Z,86.10
2018-06-25T06:55:07.533Z,87.00
2018-06-25T06:57:36.750Z,87.10
2018-06-25T07:00:07.323Z,87.20
2018-06-25T07:02:37.168Z,87.10
2018-06-25T07:05:07.259Z,88.00
2018-06-25T07:07:36.459Z,89.40
2018-06-25T07:10:05.732Z,89.30
2018-06-25T07:12:35.717Z,89.30
2018-06-25T07:15:05.268Z,89.30
2018-06-25T07:17:34.489Z,88.60
2018-06-25T07:20:04.497Z,87.50
2018-06-25T07:22:33.701Z,86.90
2018-06-25T07:25:02.817Z,86.70
2018-06-25T07:27:32.496Z,86.70
2018-06-25T07:30:02.455Z,87.60
2018-06-25T07:32:31.633Z,88.30
2018-06-25T07:35:00.785Z,87.50
2018-06-25T07:37:29.925Z,86.80
2018-06-25T07:39:59.118Z,86.40
2018-06-25T07:42:28.296Z,85.70
2018-06-25T07:44:58.453Z,84.80
2018-06-25T07:47:27.721Z,85.20
2018-06-25T07:49:56.715Z,84.10
2018-06-25T07:52:26.136Z,83.40
2018-06-25T07:54:55.253Z,84.80
2018-06-25T07:57:25.394Z,84.80
2018-06-25T07:59:55.423Z,83.50
2018-06-25T08:12:06.115Z,81.40
2018-06-25T08:14:35.656Z,81.30
2018-06-25T08:17:05.611Z,80.60
2018-06-25T08:19:34.963Z,79.70
2018-06-25T08:22:04.202Z,79.60
2018-06-25T08:24:35.060Z,78.20
2018-06-25T08:27:05.046Z,77.50
2018-06-25T08:29:34.225Z,76.00
2018-06-25T08:32:05.244Z,74.90
2018-06-25T08:34:34.510Z,74.30
2018-06-25T08:37:05.739Z,73.40
2018-06-25T08:39:35.873Z,70.40
2018-06-25T08:42:05.126Z,70.90
2018-06-25T08:44:34.383Z,71.90
2018-06-25T08:47:04.261Z,71.70
2018-06-25T08:49:33.392Z,69.60
2018-06-25T08:52:02.674Z,69.40
2018-06-25T08:54:31.784Z,66.50
2018-06-25T08:57:00.958Z,65.40
2018-06-25T08:59:30.215Z,66.60
2018-06-25T09:01:59.606Z,69.00
2018-06-25T09:04:30.119Z,70.20
2018-06-25T09:07:00.053Z,69.40
2018-06-25T09:09:30.791Z,67.70
2018-06-25T09:21:41.273Z,67.30
2018-06-25T09:24:10.451Z,61.30
2018-06-25T09:26:40.255Z,62.60
2018-06-25T09:29:10.896Z,61.40
2018-06-25T09:31:40.153Z,61.00
2018-06-25T09:34:14.841Z,60.20
2018-06-25T09:36:43.976Z,59.40
2018-06-25T09:39:13.396Z,55.30
2018-06-25T09:41:43.167Z,51.50
2018-06-25T09:44:12.173Z,49.60
2018-06-25T09:46:41.316Z,48.30
2018-06-25T09:49:10.886Z,48.80
2018-06-25T09:51:40.152Z,50.00
2018-06-25T09:54:10.344Z,51.50
2018-06-25T09:56:39.607Z,51.40
2018-06-25T09:59:09.555Z,52.30
2018-06-25T10:01:39.420Z,53.30
2018-06-25T10:04:09.520Z,54.30
2018-06-25T10:06:38.858Z,52.80
2018-06-25T10:09:11.479Z,55.20
2018-06-25T10:11:41.825Z,55.10
2018-06-25T10:14:10.925Z,54.60
2018-06-25T10:16:40.092Z,56.10
2018-06-25T10:19:11.095Z,56.50
2018-06-25T10:21:40.301Z,57.10
2018-06-25T10:24:09.447Z,57.20
2018-06-25T10:26:38.794Z,55.80
2018-06-25T10:29:08.100Z,57.30
2018-06-25T10:31:38.106Z,56.50
2018-06-25T10:34:08.349Z,55.80
2018-06-25T10:36:37.493Z,54.10
2018-06-25T10:39:09.797Z,54.80
2018-06-25T10:41:39.209Z,51.10
2018-06-25T10:44:09.636Z,48.60
2018-06-25T10:46:39.116Z,47.20
2018-06-25T10:49:08.909Z,47.60
2018-06-25T10:51:38.144Z,48.70
2018-06-25T10:54:07.650Z,50.00
2018-06-25T10:56:36.895Z,51.90
2018-06-25T10:59:06.757Z,52.90
2018-06-25T11:01:36.876Z,52.90
2018-06-25T11:04:06.996Z,52.30
2018-06-25T11:06:36.821Z,51.50
2018-06-25T11:09:10.113Z,51.50
2018-06-25T11:11:39.833Z,51.40
2018-06-25T11:14:10.295Z,51.90
2018-06-25T11:16:39.498Z,53.80
2018-06-25T11:19:08.817Z,54.70
2018-06-25T11:21:38.689Z,55.80
2018-06-25T11:24:09.296Z,53.20
2018-06-25T11:26:38.581Z,53.60
2018-06-25T11:29:08.661Z,50.20
2018-06-25T11:31:38.837Z,47.80
2018-06-25T11:34:07.998Z,48.50
2018-06-25T11:36:38.063Z,49.50
2018-06-25T11:39:11.337Z,52.40
2018-06-25T11:41:40.688Z,50.00
2018-06-25T11:44:09.811Z,52.00
2018-06-25T11:46:39.237Z,52.50
2018-06-25T11:49:08.625Z,51.80
2018-06-25T11:51:38.463Z,52.70
2018-06-25T11:54:08.723Z,49.20
2018-06-25T11:56:37.953Z,47.70
2018-06-25T11:59:07.281Z,45.10
2018-06-25T12:01:37.938Z,43.20
2018-06-25T12:04:07.051Z,42.00
2018-06-25T12:06:36.181Z,41.80
2018-06-25T12:09:08.179Z,44.80
2018-06-25T12:11:37.645Z,46.20
2018-06-25T12:14:06.968Z,46.90
2018-06-25T12:16:36.493Z,47.50
2018-06-25T12:19:05.913Z,53.10
2018-06-25T12:21:35.069Z,52.70
2018-06-25T12:24:05.012Z,52.40
2018-06-25T12:26:34.388Z,51.50
2018-06-25T12:29:03.631Z,51.30
2018-06-25T12:31:32.821Z,49.00
2018-06-25T12:34:01.965Z,47.90
2018-06-25T12:36:32.905Z,45.90
2018-06-25T12:39:02.032Z,44.60
2018-06-25T12:41:31.520Z,46.10
2018-06-25T12:44:00.679Z,45.80
2018-06-25T12:46:30.860Z,46.70
2018-06-25T12:49:00.255Z,47.10
2018-06-25T12:51:29.520Z,47.40
2018-06-25T12:53:59.321Z,48.30
2018-06-25T12:56:28.696Z,49.20
2018-06-25T12:58:58.049Z,47.00
2018-06-25T13:01:29.996Z,45.50
2018-06-25T13:03:59.968Z,42.80
2018-06-25T13:06:29.916Z,43.40
2018-06-25T13:08:59.702Z,42.70
2018-06-25T13:11:28.881Z,44.20
2018-06-25T13:13:58.996Z,43.30
2018-06-25T13:16:28.157Z,43.20
2018-06-25T13:18:57.309Z,44.50
2018-06-25T13:21:27.426Z,44.40
2018-06-25T13:23:57.289Z,45.10
2018-06-25T13:26:26.416Z,45.60
2018-06-25T13:28:55.624Z,46.90
2018-06-25T13:31:25.093Z,45.10
2018-06-25T13:33:54.516Z,44.90
2018-06-25T13:36:23.766Z,45.40
2018-06-25T13:38:53.772Z,39.70
2018-06-25T13:41:23.332Z,40.70
2018-06-25T13:43:52.602Z,39.60
2018-06-25T13:46:22.069Z,40.30
2018-06-25T13:48:51.172Z,39.00
2018-06-25T13:51:20.701Z,40.20
2018-06-25T13:53:49.936Z,42.10
2018-06-25T13:56:19.084Z,42.40
2018-06-25T13:58:49.121Z,42.50
2018-06-25T14:01:19.061Z,44.90
2018-06-25T14:03:49.272Z,44.80
2018-06-25T14:06:18.519Z,43.30
2018-06-25T14:08:47.669Z,41.00
2018-06-25T14:11:18.036Z,37.50
2018-06-25T14:13:47.383Z,37.20
2018-06-25T14:16:18.108Z,37.10
2018-06-25T14:18:48.344Z,38.50
2018-06-25T14:21:18.076Z,40.20
2018-06-25T14:23:52.874Z,42.20
2018-06-25T14:26:22.214Z,43.70
2018-06-25T14:28:51.454Z,42.70
2018-06-25T14:31:23.292Z,42.60
2018-06-25T14:33:57.636Z,39.40
2018-06-25T14:36:28.232Z,38.00
2018-06-25T14:38:57.442Z,38.30
2018-06-25T14:41:26.825Z,40.70
2018-06-25T14:43:56.400Z,43.10
2018-06-25T14:46:25.646Z,45.90
2018-06-25T14:48:55.815Z,47.70
2018-06-25T14:51:24.997Z,47.10
2018-06-25T14:53:54.903Z,45.10
2018-06-25T14:56:24.166Z,44.60
2018-06-25T14:58:54.191Z,43.00
2018-06-25T15:01:23.496Z,42.00
2018-06-25T15:03:52.706Z,40.30
2018-06-25T15:06:21.881Z,39.80
2018-06-25T15:08:50.992Z,38.10
2018-06-25T15:12:49.951Z,37.00
2018-06-25T15:15:19.152Z,36.60
2018-06-25T15:17:48.352Z,38.30
2018-06-25T15:20:17.861Z,37.50
2018-06-25T15:22:47.189Z,38.70
2018-06-25T15:25:16.985Z,37.50
2018-06-25T15:27:46.211Z,37.70
2018-06-25T15:30:15.365Z,37.50
2018-06-25T15:32:45.200Z,38.20
2018-06-25T15:35:15.321Z,39.00
2018-06-25T15:37:44.549Z,39.10
2018-06-25T15:40:13.736Z,40.30
2018-06-25T15:42:42.893Z,40.70
2018-06-25T15:45:12.096Z,41.10
2018-06-25T15:47:41.353Z,43.40
2018-06-25T15:50:10.485Z,45.70
2018-06-25T15:52:40.610Z,45.80
2018-06-25T15:55:10.492Z,44.70
2018-06-25T15:57:39.628Z,44.90
2018-06-25T16:00:08.848Z,45.00
2018-06-25T16:02:38.003Z,45.60
2018-06-25T16:05:07.129Z,46.00
2018-06-25T16:07:36.369Z,48.40
2018-06-25T16:10:05.905Z,50.00
2018-06-25T16:12:35.034Z,48.90
2018-06-25T16:15:04.141Z,48.70
2018-06-25T16:17:33.557Z,48.70
2018-06-25T16:20:02.797Z,48.80
2018-06-25T16:22:31.941Z,49.30
2018-06-25T16:25:01.358Z,49.90
2018-06-25T16:27:30.518Z,50.60
2018-06-25T16:29:59.704Z,50.40
2018-06-25T16:32:29.412Z,49.00
2018-06-25T16:34:58.542Z,48.00
2018-06-25T16:37:27.739Z,48.10
2018-06-25T16:39:56.981Z,48.80
2018-06-25T16:42:26.144Z,48.70
2018-06-25T16:44:55.517Z,49.20
2018-06-25T16:47:24.945Z,49.90
2018-06-25T16:49:54.017Z,49.80
2018-06-25T16:52:23.128Z,48.90
2018-06-25T16:54:52.973Z,48.90
2018-06-25T16:57:22.117Z,48.20
2018-06-25T16:59:51.262Z,47.60
2018-06-25T17:02:20.458Z,47.50
2018-06-25T17:04:49.657Z,48.10
2018-06-25T17:07:18.828Z,49.30
2018-06-25T17:09:48.412Z,50.00
2018-06-25T17:12:17.548Z,50.60
2018-06-25T17:14:46.660Z,50.90
2018-06-25T17:17:15.999Z,51.30
2018-06-25T17:19:45.360Z,51.40
2018-06-25T17:22:14.545Z,51.90
2018-06-25T17:24:43.754Z,52.10
2018-06-25T17:27:12.906Z,51.70
2018-06-25T17:29:42.025Z,51.90
2018-06-25T17:32:11.524Z,53.30
2018-06-25T17:34:40.712Z,54.30
2018-06-25T17:37:09.869Z,55.00
2018-06-25T17:39:39.405Z,55.80
2018-06-25T17:42:08.573Z,55.90
2018-06-25T17:44:37.864Z,56.50
2018-06-25T17:47:07.076Z,57.50
2018-06-25T17:49:36.301Z,58.20
2018-06-25T17:52:05.604Z,58.50
2018-06-25T17:54:35.007Z,58.20
2018-06-25T17:57:04.514Z,58.40
2018-06-25T17:59:33.638Z,58.90
2018-06-25T18:02:03.853Z,59.00
2018-06-25T18:04:33.965Z,58.30
2018-06-25T18:07:04.734Z,58.80
2018-06-25T18:09:33.808Z,59.40
2018-06-25T18:12:02.932Z,59.70
2018-06-25T18:14:32.383Z,59.70
2018-06-25T18:17:01.526Z,60.10
2018-06-25T18:19:30.740Z,60.00
2018-06-25T18:21:59.873Z,60.40
2018-06-25T18:24:29.066Z,61.60
2018-06-25T18:26:58.229Z,62.40
2018-06-25T18:29:27.820Z,63.30
2018-06-25T18:31:57.248Z,63.60
2018-06-25T18:34:26.425Z,65.20
2018-06-25T18:36:55.596Z,65.80
2018-06-25T18:39:24.764Z,66.90
2018-06-25T18:41:53.937Z,68.40
2018-06-25T18:44:23.401Z,68.90
2018-06-25T18:46:52.632Z,69.80
2018-06-25T18:49:21.830Z,69.90
2018-06-25T18:51:51.400Z,70.00
2018-06-25T18:54:20.497Z,70.40
2018-06-25T18:56:50.517Z,70.00
2018-06-25T18:59:19.650Z,70.40
2018-06-25T19:01:48.792Z,70.30
2018-06-25T19:04:18.753Z,70.20
2018-06-25T19:06:47.889Z,70.10
2018-06-25T19:09:17.057Z,70.90
2018-06-25T19:11:46.509Z,71.90
2018-06-25T19:14:15.741Z,72.00
2018-06-25T19:16:44.908Z,72.50
2018-06-25T19:19:14.321Z,73.00
2018-06-25T19:21:43.438Z,73.20
2018-06-25T19:24:12.514Z,73.20
2018-06-25T19:26:41.945Z,74.00
2018-06-25T19:29:11.349Z,74.30
2018-06-25T19:31:40.497Z,74.90
2018-06-25T19:34:09.649Z,74.70
2018-06-25T19:36:38.845Z,75.40
2018-06-25T19:39:11.500Z,75.90
2018-06-25T19:41:40.645Z,76.80
2018-06-25T19:44:10.613Z,77.20
2018-06-25T19:46:40.085Z,78.20
2018-06-25T19:49:09.538Z,78.60
2018-06-25T19:51:39.020Z,78.50
2018-06-25T19:54:08.646Z,78.90
2018-06-25T19:56:37.848Z,79.30
2018-06-25T19:59:07.037Z,80.60
2018-06-25T20:01:36.361Z,81.10
2018-06-25T20:04:05.541Z,81.90
2018-06-25T20:06:34.865Z,83.00
2018-06-25T20:09:06.572Z,83.00
2018-06-25T20:11:35.764Z,83.00
2018-06-25T20:14:06.033Z,83.40
2018-06-25T20:16:35.257Z,83.80
2018-06-25T20:19:05.324Z,84.50
2018-06-25T20:21:34.718Z,84.70
2018-06-25T20:24:03.925Z,85.10
2018-06-25T20:26:33.206Z,85.60
2018-06-25T20:29:02.413Z,86.30
2018-06-25T20:31:31.545Z,86.30
2018-06-25T20:34:00.685Z,87.30
2018-06-25T20:36:30.528Z,86.60
2018-06-25T20:38:59.653Z,87.00
2018-06-25T20:41:28.860Z,87.70
2018-06-25T20:43:58.317Z,88.40
2018-06-25T20:46:27.504Z,88.90
2018-06-25T20:48:56.850Z,89.50
2018-06-25T20:51:26.232Z,90.10
2018-06-25T20:53:55.360Z,90.40
2018-06-25T20:56:24.525Z,90.70
2018-06-25T20:58:53.825Z,90.90
2018-06-25T21:01:23.025Z,91.10
2018-06-25T21:03:52.201Z,91.50
2018-06-25T21:06:21.549Z,91.60
2018-06-25T21:08:50.706Z,92.00
2018-06-25T21:11:19.916Z,92.00
2018-06-25T21:13:49.360Z,92.10
2018-06-25T21:16:18.706Z,92.30
2018-06-25T21:18:48.045Z,92.70
2018-06-25T21:21:17.660Z,92.90
2018-06-25T21:23:46.784Z,93.10
2018-06-25T21:26:16.829Z,93.10
2018-06-25T21:28:45.984Z,93.30
2018-06-25T21:31:15.064Z,93.50
2018-06-25T21:33:44.785Z,93.80
2018-06-25T21:36:13.981Z,93.90
2018-06-25T21:38:43.165Z,94.10
2018-06-25T21:41:12.365Z,94.10
2018-06-25T21:43:41.475Z,94.00
2018-06-25T21:46:10.644Z,94.20
2018-06-25T21:48:40.069Z,94.20
2018-06-25T21:51:09.328Z,94.30
2018-06-25T21:53:38.491Z,94.50
2018-06-25T21:56:07.678Z,94.80
2018-06-25T21:58:36.865Z,94.90
2018-06-25T22:01:05.974Z,95.10
2018-06-25T22:03:35.436Z,95.10
2018-06-25T22:06:04.717Z,95.10
2018-06-25T22:08:33.906Z,95.20
2018-06-25T22:11:03.093Z,95.30
2018-06-25T22:13:32.273Z,95.40
2018-06-25T22:16:01.660Z,95.40
2018-06-25T22:18:31.064Z,95.50
2018-06-25T22:21:00.260Z,95.50
2018-06-25T22:23:29.421Z,95.60
2018-06-25T22:25:58.781Z,95.80
2018-06-25T22:28:28.160Z,96.00
2018-06-25T22:30:57.252Z,96.10
2018-06-25T22:33:26.441Z,96.10
2018-06-25T22:35:55.581Z,96.40
2018-06-25T22:38:24.744Z,96.70
2018-06-25T22:40:54.105Z,96.80
2018-06-25T22:43:23.253Z,96.80
2018-06-25T22:45:52.372Z,96.90
2018-06-25T22:48:21.744Z,97.00
2018-06-25T22:50:50.873Z,97.10
2018-06-25T22:53:20.104Z,97.00
2018-06-25T22:55:49.785Z,97.00
2018-06-25T22:58:18.970Z,97.00
2018-06-25T23:00:48.158Z,97.10
2018-06-25T23:03:17.545Z,97.20
2018-06-25T23:07:15.833Z,97.10
2018-06-25T23:09:45.022Z,97.00
2018-06-25T23:12:14.184Z,97.20
2018-06-25T23:14:43.389Z,97.40
2018-06-25T23:17:12.783Z,97.50
2018-06-25T23:19:42.013Z,97.50
2018-06-25T23:22:12.209Z,97.40
2018-06-25T23:24:41.336Z,97.10
2018-06-25T23:27:10.533Z,97.10
2018-06-25T23:29:40.026Z,97.40
2018-06-25T23:32:09.215Z,97.50
2018-06-25T23:34:38.458Z,97.40
2018-06-25T23:37:07.635Z,97.50
2018-06-25T23:39:36.728Z,97.70
2018-06-25T23:42:05.972Z,97.90
2018-06-25T23:44:35.140Z,97.90
2018-06-25T23:47:04.368Z,98.00
2018-06-25T23:49:33.562Z,98.10
2018-06-25T23:52:02.723Z,97.90
2018-06-25T23:54:31.864Z,97.90
2018-06-25T23:57:01.757Z,98.10
2018-06-25T23:59:30.933Z,98.40
